This is the latest recevied weather packets stored in our database for station/object YO3LAW-13. If no packets are shown the sender has not sent any weather packets the latest 1 day(s).
| Time | Temp. | Humidity | Pressure | Rain* | Wind** | Luminosity | Snow |
|---|---|---|---|---|---|---|---|
| 1777964747 | 20.56° C | 48% | 1006 hPa | 0 mm | 0 m/s | - | - |
| 1777964147 | 20° C | 54% | 1005.9 hPa | 0 mm | 0 m/s | - | - |
| 1777963547 | 19.44° C | 55% | 1005.7 hPa | 0 mm | 0 m/s | - | - |
| 1777962947 | 18.33° C | 58% | 1005.8 hPa | 0 mm | 0.45 m/s, 317° | - | - |
| 1777962347 | 18.89° C | 52% | 1005.6 hPa | 0 mm | 0 m/s | - | - |
| 1777961747 | 18.33° C | 56% | 1005.6 hPa | 0 mm | 0 m/s | - | - |
| 1777961147 | 18.33° C | 58% | 1005.6 hPa | 0 mm | 0 m/s | - | - |
| 1777960547 | 18.33° C | 58% | 1005.7 hPa | 0 mm | 0 m/s | - | - |
| 1777959947 | 17.78° C | 57% | 1005.8 hPa | 0 mm | 0 m/s | - | - |
| 1777959347 | 16.67° C | 61% | 1005.8 hPa | 0 mm | 0 m/s | - | - |
| 1777958747 | 15.56° C | 64% | 1005.6 hPa | 0 mm | 0 m/s | - | - |
| 1777958147 | 15.56° C | 67% | 1005.3 hPa | 0 mm | 0 m/s | - | - |
| 1777957547 | 14.44° C | 68% | 1005.3 hPa | 0 mm | 0.89 m/s, 9° | - | - |
| 1777956947 | 13.33° C | 75% | 1005.6 hPa | 0 mm | 0.45 m/s, 222° | - | - |
| 1777956347 | 13.33° C | 72% | 1005.4 hPa | 0 mm | 0.89 m/s, 6° | - | - |
| 1777955747 | 11.67° C | 82% | 1005.7 hPa | 0 mm | 0.89 m/s, 162° | - | - |
| 1777955147 | 10.56° C | 85% | 1005.5 hPa | 0 mm | 0 m/s | - | - |
| 1777954547 | 10° C | 89% | 1005.4 hPa | 0 mm | 0.89 m/s, 247° | - | - |
| 1777953947 | 8.89° C | 94% | 1005.5 hPa | 0 mm | 0.89 m/s, 182° | - | - |
| 1777953348 | 8.33° C | 95% | 1005.4 hPa | 0 mm | 0 m/s | - | - |
| 1777952747 | 7.78° C | 96% | 1005.3 hPa | 0 mm | 0 m/s | - | - |
| 1777952147 | 7.22° C | 96% | 1005.2 hPa | 0 mm | 0.45 m/s, 97° | - | - |
| 1777951547 | 7.22° C | 96% | 1005.2 hPa | 0 mm | 0 m/s | - | - |
| 1777950947 | 7.22° C | 95% | 1005.3 hPa | 0 mm | 0 m/s | - | - |
| 1777950347 | 7.22° C | 95% | 1005.1 hPa | 0 mm | 0.89 m/s, 59° | - | - |
* Rain latest hour (hover to see other rain measurements)
** Current wind speed in m/s (hover to see current wind gust speed)